Detailed System and Site Information

System Data Health
Measure Timestamp Ago Health
Web Server Live 17:35:06, 24th July 2016 0 s health
Last live-data upload from local system (nw3) 17:35:02, 24th July 2016 4 s health
Last upload of secondary data 17:00:23, 24th July 2016 35 mins health
Latest Webcam upload 17:33:08, 24th July 2016 2 mins health
Last upload of 24hr data log 17:29:09, 24th July 2016 6 mins health
Last full data process 17:30:07, 24th July 2016 5 mins health
Last data downtime (>15 mins) 03:31:04, 8th July 2016 17 days
Local System and Site Information
Measure Value
WD Version & Build # 10.37R - 40
WD Start Time 03:36 08/07/16
WD Data Count 494637
WD Memory Use 81,524 K
--- ---
Windows Uptime 16 Days 13 Hours 23 Minutes 58 Seconds
Free System Memory 2617 MB (Max: 4GB)
--- ---
Station Altitude 57 m (187 ft)
Station Latitude 51.556
Station Longitude -0.154
Machine Room Conditions
Measure Value
Temperature 27.2 °C
Temperature Trend -0.2 °C /hr
Relative Humidity 37%
Dew Point 11.2 °C
--- ---
Tmin Today 25.6 °C at 05:55
Tmax Today 27.5 °C at 15:05
Hmin Today 35% at 00:00
Hmax Today 39% at 10:01
Tmin Yesterday 23.8 °C at 05:32
Tmax Yesterday 30.6 °C at 17:16

Site owner and administrator: Ben Lee-Rodgers (2010 - present)

Last 10hrs Temp/Hum for Secondary Sensor and Indoors

Extra Sensors/Indoor

Other

Raw METAR from EGLL (Heathrow)

EGLL 241620Z AUTO 21012KT 9999 BKN025 23/15 Q1018 NOSIG
Decode Instructions
Source

WD Screenshot

not available